createdAt,value
2023-05-02T00:01:31.582Z,100.00
2023-05-02T00:03:58.132Z,100.00
2023-05-02T00:06:24.867Z,100.00
2023-05-02T00:08:51.432Z,100.00
2023-05-02T00:11:17.871Z,100.00
2023-05-02T00:13:44.722Z,99.91
2023-05-02T00:16:11.344Z,99.48
2023-05-02T00:18:37.835Z,98.08
2023-05-02T00:21:04.326Z,97.98
2023-05-02T00:23:31.941Z,97.33
2023-05-02T00:25:58.423Z,97.08
2023-05-02T00:28:26.467Z,96.83
2023-05-02T00:30:53.508Z,95.83
2023-05-02T00:33:19.966Z,95.02
2023-05-02T00:35:46.429Z,94.35
2023-05-02T00:38:12.959Z,94.35
2023-05-02T00:40:47.755Z,95.54
2023-05-02T00:43:15.358Z,93.46
2023-05-02T00:45:43.588Z,93.01
2023-05-02T00:48:10.836Z,93.39
2023-05-02T00:50:38.759Z,94.04
2023-05-02T00:53:05.588Z,94.15
2023-05-02T00:55:36.085Z,94.93
2023-05-02T00:58:06.810Z,95.82
2023-05-02T01:00:59.936Z,96.82
2023-05-02T01:04:00.388Z,98.27
2023-05-02T01:06:42.261Z,97.96
2023-05-02T01:09:30.368Z,97.73
2023-05-02T01:12:05.569Z,99.11
2023-05-02T01:14:55.182Z,100.00
2023-05-02T01:17:24.897Z,99.58
2023-05-02T01:19:55.274Z,97.99
2023-05-02T01:22:24.615Z,97.71
2023-05-02T01:25:14.007Z,96.21
2023-05-02T01:27:47.057Z,96.73
2023-05-02T01:30:16.396Z,95.16
2023-05-02T01:32:46.613Z,93.60
2023-05-02T01:35:18.215Z,93.59
2023-05-02T01:37:47.174Z,93.54
2023-05-02T01:40:18.649Z,95.08
2023-05-02T01:42:50.156Z,93.96
2023-05-02T01:45:18.618Z,93.83
2023-05-02T01:47:46.729Z,94.75
2023-05-02T01:50:17.352Z,94.74
2023-05-02T01:52:47.414Z,96.60
2023-05-02T01:55:16.179Z,98.52
2023-05-02T01:57:45.792Z,100.00
2023-05-02T02:00:13.798Z,100.00
2023-05-02T02:02:42.478Z,100.00
2023-05-02T02:05:10.616Z,100.00
2023-05-02T02:07:40.642Z,100.00
2023-05-02T02:10:11.187Z,100.00
2023-05-02T02:12:52.219Z,100.00
2023-05-02T02:15:25.713Z,100.00
2023-05-02T02:17:57.265Z,100.00
2023-05-02T02:20:23.766Z,100.00
2023-05-02T02:22:51.443Z,100.00
2023-05-02T02:25:19.884Z,100.00
2023-05-02T02:27:47.601Z,100.00
2023-05-02T02:30:14.170Z,100.00
2023-05-02T02:32:40.675Z,100.00
2023-05-02T02:35:10.413Z,100.00
2023-05-02T02:37:56.648Z,100.00
2023-05-02T02:40:29.356Z,100.00
2023-05-02T02:43:09.200Z,100.00
2023-05-02T02:45:43.393Z,100.00
2023-05-02T02:48:27.938Z,100.00
2023-05-02T02:51:40.639Z,100.00
2023-05-02T02:54:29.398Z,100.00
2023-05-02T02:57:07.651Z,100.00
2023-05-02T02:59:40.741Z,100.00
2023-05-02T03:02:12.511Z,100.00
2023-05-02T03:04:44.998Z,100.00
2023-05-02T03:07:14.979Z,100.00
2023-05-02T03:09:48.472Z,100.00
2023-05-02T03:12:15.080Z,100.00
2023-05-02T03:14:42.461Z,100.00
2023-05-02T03:17:11.764Z,100.00
2023-05-02T03:19:38.491Z,100.00
2023-05-02T03:22:05.900Z,100.00
2023-05-02T03:24:32.453Z,100.00
2023-05-02T03:26:59.575Z,100.00
2023-05-02T03:29:26.839Z,100.00
2023-05-02T03:31:53.353Z,100.00
2023-05-02T03:34:21.940Z,100.00
2023-05-02T03:36:48.540Z,100.00
2023-05-02T03:39:15.428Z,100.00
2023-05-02T03:41:46.558Z,100.00
2023-05-02T03:44:15.834Z,100.00
2023-05-02T03:46:45.445Z,100.00
2023-05-02T03:49:15.205Z,100.00
2023-05-02T03:51:44.652Z,99.64
2023-05-02T03:54:13.578Z,100.00
2023-05-02T03:56:42.661Z,100.00
2023-05-02T03:59:09.307Z,100.00
2023-05-02T04:01:35.816Z,100.00
2023-05-02T04:04:02.539Z,100.00
2023-05-02T04:06:29.287Z,100.00
2023-05-02T04:08:55.750Z,100.00
2023-05-02T04:11:22.287Z,100.00
2023-05-02T04:13:48.831Z,100.00
2023-05-02T04:16:15.874Z,100.00
2023-05-02T04:18:44.469Z,100.00
2023-05-02T04:21:11.012Z,100.00
2023-05-02T04:23:37.754Z,99.59
2023-05-02T04:26:04.208Z,99.62
2023-05-02T04:28:30.688Z,100.00
2023-05-02T04:30:57.726Z,100.00
2023-05-02T04:33:24.593Z,100.00
2023-05-02T04:35:51.168Z,100.00
2023-05-02T04:38:17.742Z,100.00
2023-05-02T04:40:46.295Z,100.00
2023-05-02T04:43:12.726Z,100.00
2023-05-02T04:45:39.191Z,100.00
2023-05-02T04:48:05.901Z,100.00
2023-05-02T04:50:32.882Z,100.00
2023-05-02T04:52:59.537Z,100.00
2023-05-02T04:55:26.134Z,100.00
2023-05-02T04:57:52.677Z,100.00
2023-05-02T05:00:19.260Z,100.00
2023-05-02T05:02:49.344Z,100.00
2023-05-02T05:05:16.499Z,100.00
2023-05-02T05:07:43.497Z,100.00
2023-05-02T05:10:11.471Z,100.00
2023-05-02T05:12:38.187Z,100.00
2023-05-02T05:15:05.115Z,100.00
2023-05-02T05:17:31.622Z,100.00
2023-05-02T05:19:58.219Z,100.00
2023-05-02T05:22:24.775Z,100.00
2023-05-02T05:24:55.238Z,100.00
2023-05-02T05:27:22.056Z,100.00
2023-05-02T05:29:48.621Z,100.00
2023-05-02T05:32:18.293Z,100.00
2023-05-02T05:34:51.824Z,100.00
2023-05-02T05:37:18.784Z,100.00
2023-05-02T05:39:48.288Z,100.00
2023-05-02T05:42:18.672Z,100.00
2023-05-02T05:44:49.593Z,100.00
2023-05-02T05:47:22.050Z,100.00
2023-05-02T05:49:53.154Z,100.00
2023-05-02T05:52:19.672Z,100.00
2023-05-02T05:54:51.386Z,100.00
2023-05-02T05:57:18.066Z,100.00
2023-05-02T05:59:48.811Z,100.00
2023-05-02T06:02:19.832Z,100.00
2023-05-02T06:04:47.565Z,100.00
2023-05-02T06:07:15.880Z,100.00
2023-05-02T06:09:42.616Z,100.00
2023-05-02T06:12:09.411Z,100.00
2023-05-02T06:14:36.227Z,100.00
2023-05-02T06:17:02.941Z,100.00
2023-05-02T06:19:29.773Z,100.00
2023-05-02T06:21:56.512Z,100.00
2023-05-02T06:24:23.206Z,100.00
2023-05-02T06:26:51.613Z,100.00
2023-05-02T06:29:18.070Z,100.00
2023-05-02T06:31:46.160Z,100.00
2023-05-02T06:34:12.734Z,100.00
2023-05-02T06:36:39.181Z,100.00
2023-05-02T06:39:05.734Z,100.00
2023-05-02T06:41:32.162Z,100.00
2023-05-02T06:43:58.811Z,100.00
2023-05-02T06:46:29.313Z,99.81
2023-05-02T06:48:55.731Z,94.28
2023-05-02T06:51:22.521Z,93.04
2023-05-02T06:53:49.181Z,94.00
2023-05-02T06:56:18.964Z,91.15
2023-05-02T06:58:48.932Z,89.31
2023-05-02T07:01:18.483Z,87.63
2023-05-02T07:03:47.378Z,85.19
2023-05-02T07:06:16.916Z,80.87
2023-05-02T07:08:46.115Z,83.85
2023-05-02T07:11:12.728Z,82.00
2023-05-02T07:13:39.162Z,80.09
2023-05-02T07:16:06.251Z,80.59
2023-05-02T07:18:32.758Z,80.15
2023-05-02T07:20:59.349Z,80.83
2023-05-02T07:23:25.915Z,80.44
2023-05-02T07:25:52.392Z,79.18
2023-05-02T07:28:18.902Z,77.94
2023-05-02T07:30:46.748Z,72.61
2023-05-02T07:33:18.950Z,75.34
2023-05-02T07:35:48.576Z,73.74
2023-05-02T07:38:17.856Z,72.55
2023-05-02T07:40:46.462Z,72.57
2023-05-02T07:43:15.402Z,72.18
2023-05-02T07:45:42.234Z,72.84
2023-05-02T07:48:08.798Z,73.15
2023-05-02T07:50:35.540Z,70.81
2023-05-02T07:53:02.025Z,70.66
2023-05-02T07:55:28.675Z,70.86
2023-05-02T07:57:55.139Z,70.26
2023-05-02T08:00:21.746Z,68.23
2023-05-02T08:02:48.351Z,69.17
2023-05-02T08:05:18.509Z,67.69
2023-05-02T08:07:48.270Z,67.28
2023-05-02T08:10:18.289Z,65.77
2023-05-02T08:12:46.352Z,67.18
2023-05-02T08:15:14.638Z,64.92
2023-05-02T08:17:41.725Z,67.34
2023-05-02T08:20:08.565Z,66.24
2023-05-02T08:22:35.057Z,66.21
2023-05-02T08:25:01.557Z,62.06
2023-05-02T08:27:28.049Z,60.78
2023-05-02T08:29:54.537Z,60.65
2023-05-02T08:32:22.349Z,59.49
2023-05-02T08:34:48.884Z,62.53
2023-05-02T08:37:18.480Z,60.70
2023-05-02T08:39:47.970Z,59.60
2023-05-02T08:42:16.283Z,59.54
2023-05-02T08:44:42.785Z,59.38
2023-05-02T08:47:15.826Z,62.29
2023-05-02T08:49:42.484Z,63.39
2023-05-02T08:52:12.222Z,66.48
2023-05-02T08:54:39.188Z,67.27
2023-05-02T08:57:05.949Z,67.39
2023-05-02T08:59:32.548Z,66.96
2023-05-02T09:02:17.865Z,68.93
2023-05-02T09:04:53.342Z,67.58
2023-05-02T09:07:19.876Z,64.10
2023-05-02T09:09:49.294Z,64.15
2023-05-02T09:12:26.409Z,63.17
2023-05-02T09:15:11.592Z,60.87
2023-05-02T09:17:47.318Z,56.41
2023-05-02T09:20:18.958Z,52.28
2023-05-02T09:22:50.679Z,52.45
2023-05-02T09:25:17.767Z,54.73
2023-05-02T09:27:55.220Z,56.75
2023-05-02T09:30:23.056Z,51.92
2023-05-02T09:32:55.904Z,52.48
2023-05-02T09:35:26.020Z,48.24
2023-05-02T09:37:59.272Z,48.77
2023-05-02T09:40:27.539Z,48.76
2023-05-02T09:42:54.044Z,50.19
2023-05-02T09:45:29.584Z,51.32
2023-05-02T09:48:02.614Z,54.03
2023-05-02T09:50:36.471Z,55.84
2023-05-02T09:53:11.228Z,56.85
2023-05-02T09:55:37.885Z,56.67
2023-05-02T09:58:04.506Z,54.75
2023-05-02T10:00:40.504Z,49.87
2023-05-02T10:03:08.533Z,47.82
2023-05-02T10:05:40.285Z,47.31
2023-05-02T10:08:07.861Z,48.61
2023-05-02T10:10:37.004Z,45.63
2023-05-02T10:13:05.214Z,46.21
2023-05-02T10:15:33.815Z,49.13
2023-05-02T10:18:08.923Z,51.35
2023-05-02T10:20:37.734Z,52.75
2023-05-02T10:23:06.094Z,52.76
2023-05-02T10:25:33.326Z,50.21
2023-05-02T10:28:00.489Z,49.11
2023-05-02T10:30:27.185Z,50.52
2023-05-02T10:32:56.858Z,48.62
2023-05-02T10:35:26.632Z,45.02
2023-05-02T10:37:53.772Z,43.57
2023-05-02T10:40:20.317Z,44.75
2023-05-02T10:42:51.129Z,46.02
2023-05-02T10:45:31.886Z,47.74
2023-05-02T10:48:22.225Z,51.07
2023-05-02T10:50:52.290Z,48.57
2023-05-02T10:53:22.629Z,48.94
2023-05-02T10:56:21.772Z,48.14
2023-05-02T10:58:50.262Z,46.06
2023-05-02T11:01:29.325Z,43.68
2023-05-02T11:04:01.069Z,40.63
2023-05-02T11:06:29.130Z,40.92
2023-05-02T11:09:24.760Z,41.02
2023-05-02T11:11:54.918Z,38.95
2023-05-02T11:14:30.837Z,38.36
2023-05-02T11:17:06.174Z,39.46
2023-05-02T11:19:38.238Z,36.47
2023-05-02T11:22:24.386Z,36.88
2023-05-02T11:24:51.261Z,37.04
2023-05-02T11:27:29.980Z,36.64
2023-05-02T11:29:58.145Z,36.12
2023-05-02T11:32:50.159Z,38.24
2023-05-02T11:35:23.800Z,40.40
2023-05-02T11:37:54.350Z,40.64
2023-05-02T11:40:20.939Z,38.51
2023-05-02T11:42:47.656Z,35.85
2023-05-02T11:45:17.100Z,35.82
2023-05-02T11:47:44.620Z,36.71
2023-05-02T11:50:12.512Z,36.94
2023-05-02T11:52:40.777Z,35.99
2023-05-02T11:55:11.735Z,36.06
2023-05-02T11:57:39.469Z,36.81
2023-05-02T12:00:06.872Z,36.13
2023-05-02T12:02:43.512Z,36.14
2023-05-02T12:05:16.689Z,37.01
2023-05-02T12:07:49.338Z,38.96
2023-05-02T12:10:16.575Z,39.68
2023-05-02T12:12:45.983Z,40.41
2023-05-02T12:15:12.913Z,38.92
2023-05-02T12:17:42.709Z,36.97
2023-05-02T12:20:10.870Z,36.06
2023-05-02T12:22:38.070Z,35.24
2023-05-02T12:25:08.699Z,35.49
2023-05-02T12:27:35.738Z,36.92
2023-05-02T12:30:02.415Z,37.63
2023-05-02T12:32:34.791Z,38.13
2023-05-02T12:35:03.789Z,38.17
2023-05-02T12:37:30.370Z,39.15
2023-05-02T12:39:56.838Z,39.22
2023-05-02T12:42:25.311Z,37.03
2023-05-02T12:44:53.076Z,38.03
2023-05-02T12:47:21.397Z,38.88
2023-05-02T12:49:56.432Z,38.16
2023-05-02T12:52:49.769Z,36.30
2023-05-02T12:55:21.178Z,36.47
2023-05-02T12:57:48.325Z,34.03
2023-05-02T13:00:20.102Z,33.80
2023-05-02T13:02:49.685Z,33.39
2023-05-02T13:05:19.987Z,34.32
2023-05-02T13:07:49.711Z,34.28
2023-05-02T13:10:19.293Z,33.20
2023-05-02T13:12:48.088Z,34.35
2023-05-02T13:15:16.777Z,36.34
2023-05-02T13:17:43.654Z,38.38
2023-05-02T13:20:10.787Z,36.48
2023-05-02T13:22:37.730Z,35.75
2023-05-02T13:25:05.432Z,35.41
2023-05-02T13:27:34.047Z,36.42
2023-05-02T13:30:07.512Z,37.70
2023-05-02T13:32:35.661Z,37.79
2023-05-02T13:35:04.170Z,33.63
2023-05-02T13:37:30.662Z,32.80
2023-05-02T13:39:57.319Z,34.94
2023-05-02T13:42:23.825Z,33.03
2023-05-02T13:44:50.508Z,32.95
2023-05-02T13:47:18.715Z,33.77
2023-05-02T13:49:45.148Z,35.21
2023-05-02T13:52:11.679Z,35.70
2023-05-02T13:54:38.258Z,35.32
2023-05-02T13:57:05.574Z,34.48
2023-05-02T13:59:32.346Z,34.45
2023-05-02T14:01:59.017Z,34.78
2023-05-02T14:04:25.713Z,33.38
2023-05-02T14:06:52.436Z,34.72
2023-05-02T14:09:22.189Z,33.75
2023-05-02T14:11:51.960Z,32.64
2023-05-02T14:14:21.638Z,32.28
2023-05-02T14:16:51.420Z,34.21
2023-05-02T14:19:20.835Z,34.70
2023-05-02T14:21:54.826Z,34.55
2023-05-02T14:24:21.362Z,35.64
2023-05-02T14:26:49.659Z,36.74
2023-05-02T14:29:16.318Z,35.57
2023-05-02T14:31:42.932Z,35.58
2023-05-02T14:34:09.441Z,34.73
2023-05-02T14:36:35.933Z,35.36
2023-05-02T14:39:02.390Z,35.88
2023-05-02T14:41:28.844Z,36.35
2023-05-02T14:43:55.299Z,37.97
2023-05-02T14:46:21.918Z,39.74
2023-05-02T14:48:51.179Z,40.14
2023-05-02T14:51:20.444Z,40.32
2023-05-02T14:53:51.297Z,38.42
2023-05-02T14:56:20.488Z,38.12
2023-05-02T14:58:49.073Z,38.64
2023-05-02T15:01:23.068Z,36.94
2023-05-02T15:04:05.832Z,36.91
2023-05-02T15:06:34.114Z,36.07
2023-05-02T15:09:01.672Z,35.09
2023-05-02T15:11:28.166Z,36.02
2023-05-02T15:13:56.554Z,38.75
2023-05-02T15:16:24.964Z,40.27
2023-05-02T15:18:51.479Z,41.76
2023-05-02T15:21:21.983Z,41.82
2023-05-02T15:23:51.541Z,42.01
2023-05-02T15:26:21.537Z,42.66
2023-05-02T15:28:51.359Z,42.75
2023-05-02T15:31:21.553Z,42.28
2023-05-02T15:33:51.442Z,39.80
2023-05-02T15:36:20.731Z,39.98
2023-05-02T15:38:49.681Z,40.08
2023-05-02T15:41:16.505Z,39.13
2023-05-02T15:43:43.558Z,39.67
2023-05-02T15:46:11.170Z,41.79
2023-05-02T15:48:37.676Z,41.99
2023-05-02T15:51:05.408Z,42.24
2023-05-02T15:53:32.164Z,43.28
2023-05-02T15:55:58.655Z,44.87
2023-05-02T15:58:25.128Z,45.29
2023-05-02T16:00:52.595Z,44.07
2023-05-02T16:03:19.912Z,43.58
2023-05-02T16:05:48.718Z,43.22
2023-05-02T16:08:15.187Z,44.02
2023-05-02T16:10:43.504Z,44.39
2023-05-02T16:13:10.270Z,45.21
2023-05-02T16:15:37.828Z,45.57
2023-05-02T16:18:04.419Z,46.92
2023-05-02T16:20:33.870Z,44.89
2023-05-02T16:23:00.566Z,44.58
2023-05-02T16:25:27.075Z,44.71
2023-05-02T16:27:53.508Z,43.98
2023-05-02T16:30:20.023Z,43.14
2023-05-02T16:32:46.948Z,44.19
2023-05-02T16:35:14.121Z,45.41
2023-05-02T16:37:41.370Z,46.14
2023-05-02T16:40:08.938Z,45.81
2023-05-02T16:42:35.699Z,46.36
2023-05-02T16:45:02.321Z,46.26
2023-05-02T16:47:28.883Z,46.87
2023-05-02T16:49:56.757Z,47.80
2023-05-02T16:52:23.824Z,48.28
2023-05-02T16:54:50.494Z,48.64
2023-05-02T16:57:21.274Z,48.97
2023-05-02T16:59:52.535Z,47.29
2023-05-02T17:02:22.145Z,45.94
2023-05-02T17:04:52.265Z,44.74
2023-05-02T17:07:21.708Z,45.24
2023-05-02T17:09:50.917Z,45.71
2023-05-02T17:12:22.710Z,45.60
2023-05-02T17:14:52.320Z,44.85
2023-05-02T17:17:23.518Z,45.40
2023-05-02T17:19:50.693Z,46.85
2023-05-02T17:22:21.326Z,48.02
2023-05-02T17:24:53.988Z,49.23
2023-05-02T17:27:20.554Z,50.40
2023-05-02T17:29:49.370Z,50.63
2023-05-02T17:32:16.005Z,51.71
2023-05-02T17:34:45.914Z,51.68
2023-05-02T17:37:12.648Z,51.98
2023-05-02T17:39:39.151Z,52.82
2023-05-02T17:42:05.772Z,52.82
2023-05-02T17:44:35.873Z,52.96
2023-05-02T17:47:03.507Z,53.29
2023-05-02T17:49:30.080Z,53.35
2023-05-02T17:51:56.897Z,53.68
2023-05-02T17:54:23.402Z,53.96
2023-05-02T17:56:50.669Z,52.92
2023-05-02T17:59:19.369Z,53.44
2023-05-02T18:01:45.883Z,53.62
2023-05-02T18:04:14.131Z,53.95
2023-05-02T18:06:40.924Z,54.00
2023-05-02T18:09:07.418Z,52.48
2023-05-02T18:11:33.913Z,52.49
2023-05-02T18:14:03.693Z,52.85
2023-05-02T18:16:31.880Z,52.89
2023-05-02T18:18:58.455Z,53.23
2023-05-02T18:21:25.844Z,52.73
2023-05-02T18:23:52.343Z,52.80
2023-05-02T18:26:22.082Z,52.86
2023-05-02T18:28:53.211Z,53.37
2023-05-02T18:31:22.230Z,53.54
2023-05-02T18:33:53.503Z,54.00
2023-05-02T18:36:28.370Z,54.00
2023-05-02T18:38:57.788Z,54.74
2023-05-02T18:41:24.346Z,54.59
2023-05-02T18:43:50.999Z,55.11
2023-05-02T18:46:19.792Z,55.11
2023-05-02T18:48:46.415Z,55.13
2023-05-02T18:51:13.392Z,55.15
2023-05-02T18:53:39.871Z,55.59
2023-05-02T18:56:13.396Z,55.65
2023-05-02T18:58:40.879Z,56.44
2023-05-02T19:01:15.243Z,56.76
2023-05-02T19:03:43.612Z,57.19
2023-05-02T19:06:10.853Z,57.28
2023-05-02T19:08:37.427Z,57.77
2023-05-02T19:11:04.308Z,58.53
2023-05-02T19:13:31.240Z,58.98
2023-05-02T19:15:58.090Z,59.72
2023-05-02T19:18:24.639Z,59.80
2023-05-02T19:20:53.788Z,59.79
2023-05-02T19:23:23.148Z,60.10
2023-05-02T19:25:53.952Z,60.64
2023-05-02T19:28:23.502Z,61.00
2023-05-02T19:30:54.869Z,61.38
2023-05-02T19:33:24.450Z,61.96
2023-05-02T19:35:54.291Z,62.37
2023-05-02T19:38:24.867Z,62.61
2023-05-02T19:40:51.651Z,62.81
2023-05-02T19:43:18.178Z,64.03
2023-05-02T19:45:44.860Z,64.14
2023-05-02T19:48:12.796Z,64.83
2023-05-02T19:50:42.767Z,65.11
2023-05-02T19:53:09.262Z,65.45
2023-05-02T19:55:35.883Z,65.63
2023-05-02T19:58:04.246Z,65.89
2023-05-02T20:00:30.979Z,66.34
2023-05-02T20:02:57.671Z,66.62
2023-05-02T20:05:29.790Z,67.11
2023-05-02T20:07:56.314Z,67.21
2023-05-02T20:10:23.029Z,67.42
2023-05-02T20:12:52.725Z,67.69
2023-05-02T20:15:21.365Z,67.96
2023-05-02T20:17:47.941Z,67.51
2023-05-02T20:20:14.567Z,67.61
2023-05-02T20:22:41.366Z,67.52
2023-05-02T20:25:10.340Z,67.81
2023-05-02T20:27:36.825Z,68.33
2023-05-02T20:30:03.697Z,68.59
2023-05-02T20:32:30.701Z,69.11
2023-05-02T20:34:57.689Z,69.17
2023-05-02T20:37:25.545Z,69.34
2023-05-02T20:39:52.812Z,69.36
2023-05-02T20:42:23.379Z,69.05
2023-05-02T20:45:08.792Z,69.69
2023-05-02T20:47:35.341Z,69.74
2023-05-02T20:50:02.078Z,69.67
2023-05-02T20:52:28.995Z,70.17
2023-05-02T20:54:56.308Z,70.28
2023-05-02T20:57:26.464Z,70.65
2023-05-02T20:59:59.520Z,70.77
2023-05-02T21:02:27.418Z,71.22
2023-05-02T21:04:55.099Z,71.10
2023-05-02T21:07:25.752Z,71.16
2023-05-02T21:09:55.919Z,71.26
2023-05-02T21:12:24.181Z,71.48
2023-05-02T21:14:50.774Z,71.62
2023-05-02T21:17:17.509Z,72.08
2023-05-02T21:19:43.995Z,72.13
2023-05-02T21:22:10.527Z,71.87
2023-05-02T21:24:36.985Z,71.89
2023-05-02T21:27:03.727Z,71.96
2023-05-02T21:29:30.231Z,72.27
2023-05-02T21:31:56.707Z,72.56
2023-05-02T21:34:24.934Z,72.64
2023-05-02T21:36:51.411Z,72.86
2023-05-02T21:39:18.231Z,73.17
2023-05-02T21:41:44.660Z,72.92
2023-05-02T21:44:11.613Z,72.88
2023-05-02T21:46:38.055Z,72.86
2023-05-02T21:49:04.553Z,73.20
2023-05-02T21:51:31.625Z,73.48
2023-05-02T21:53:58.028Z,73.46
2023-05-02T21:56:27.636Z,73.87
2023-05-02T21:58:56.365Z,73.81
2023-05-02T22:01:22.928Z,74.26
2023-05-02T22:03:49.450Z,74.15
2023-05-02T22:06:16.749Z,74.24
2023-05-02T22:08:43.926Z,74.71
2023-05-02T22:11:10.400Z,74.53
2023-05-02T22:13:37.269Z,74.82
2023-05-02T22:16:03.892Z,74.79
2023-05-02T22:18:30.368Z,75.05
2023-05-02T22:21:01.552Z,75.23
2023-05-02T22:23:28.068Z,76.18
2023-05-02T22:25:54.495Z,75.61
2023-05-02T22:28:21.047Z,75.97
2023-05-02T22:30:47.559Z,75.57
2023-05-02T22:33:14.314Z,76.05
2023-05-02T22:35:40.997Z,76.27
2023-05-02T22:38:10.891Z,76.81
2023-05-02T22:40:37.374Z,77.33
2023-05-02T22:43:03.915Z,77.08
2023-05-02T22:45:30.504Z,76.66
2023-05-02T22:48:00.682Z,76.93
2023-05-02T22:50:31.321Z,77.44
2023-05-02T22:53:03.759Z,77.45
2023-05-02T22:55:30.627Z,77.15
2023-05-02T22:57:59.469Z,77.12
2023-05-02T23:00:26.024Z,76.75
2023-05-02T23:02:52.588Z,76.93
2023-05-02T23:05:19.498Z,76.93
2023-05-02T23:07:45.956Z,76.50
2023-05-02T23:10:12.433Z,75.99
2023-05-02T23:12:39.162Z,76.24
2023-05-02T23:15:06.857Z,76.92
2023-05-02T23:17:33.469Z,77.05
2023-05-02T23:20:03.366Z,76.82
2023-05-02T23:22:31.335Z,76.19
2023-05-02T23:24:57.788Z,76.60
2023-05-02T23:27:24.212Z,76.39
2023-05-02T23:29:50.681Z,76.89
2023-05-02T23:32:17.313Z,77.95
2023-05-02T23:34:44.408Z,78.45
2023-05-02T23:37:12.734Z,78.86
2023-05-02T23:39:39.326Z,79.67
2023-05-02T23:42:06.464Z,79.27
2023-05-02T23:44:33.281Z,79.77
2023-05-02T23:47:00.704Z,79.88
2023-05-02T23:49:27.778Z,79.74
2023-05-02T23:51:54.375Z,79.88
2023-05-02T23:54:20.796Z,79.11
2023-05-02T23:56:47.251Z,78.74
2023-05-02T23:59:13.705Z,79.17
